Terminal Aerodrome Forecast
Issued by NWS

Home | Current Version | Previous Version | Text Only | Print | Product List | Glossary Off
Versions: 1 2 3 4 5 6 7 8 9 10 11 12 13 14 15 16 17 18 19 20 21 22 23 24 25 26 27 28 29 30 31 32 33 34 35 36

000
FTUS43 KLOT 232330
TAFORD
TAF
KORD 232330Z 2400/2506 01012G22KT 3SM TSRA SCT015 OVC040CB
     FM240130 27015G25KT 3SM TSRA SCT015 OVC040CB
     FM240230 VRB06KT 6SM -SHRA VCTS BKN040CB
     FM240400 18006KT P6SM SCT030 BKN250
     FM241000 18006KT P6SM VCTS BKN025CB
     FM241300 21012G19KT P6SM SCT040
     FM242200 24012G19KT P6SM VCTS BKN040CB
     FM250200 27008KT P6SM SCT040 BKN250=

USA.gov is the U.S. government's official web portal to all federal, state and local government web resources and services.